Time;durP1;ratioP1;P1;durP2;ratioP2;P2;SDS_P1;SDS_P2;PMS_P1;PMS_P2;Temp;Humidity;BMP_temperature;BMP_pressure;BME280_temperature;BME280_humidity;BME280_pressure;Samples;Min_cycle;Max_cycle;Signal;HPM_P1;HPM_P2
2022/11/20 13:42:45;;;;;;;38.03;23.47;;;;;;;;;;4256938;27;20334;-42
2022/11/20 13:43:47;;;;;;;35.13;21.65;;;;;;;;;;2121045;28;20176;-42
2022/11/20 13:44:51;;;;;;;32.58;19.95;;;;;;;;;;2117238;28;20063;-49
2022/11/20 13:45:59;;;;;;;34.67;20.05;;;;;;;;;;2118087;28;20063;-48
2022/11/20 13:47:20;;;;;;;34.63;19.67;;;;;;;;;;2114975;28;20040;-47
2022/11/20 13:48:22;;;;;;;32.50;19.92;;;;;;;;;;2112369;28;20047;-47
2022/11/20 13:49:23;;;;;;;;;;;;;;;;;;2113016;28;20058;-48
2022/11/20 13:50:32;;;;;;;35.42;19.58;;;;;;;;;;2112657;28;19927;-47
2022/11/20 13:51:37;;;;;;;31.92;18.15;;;;;;;;;;2112524;28;20476;-47
2022/11/20 13:52:42;;;;;;;36.28;20.70;;;;;;;;;;2112565;28;20842;-48
2022/11/20 13:53:52;;;;;;;37.22;21.63;;;;;;;;;;2112789;28;20051;-47
2022/11/20 13:54:58;;;;;;;32.20;17.77;;;;;;;;;;2112668;28;20097;-49
2022/11/20 13:56:00;;;;;;;35.38;20.90;;;;;;;;;;2112600;28;20504;-47
2022/11/20 13:57:08;;;;;;;37.55;23.52;;;;;;;;;;2112380;28;20054;-47
2022/11/20 13:58:19;;;;;;;35.03;17.42;;;;;;;;;;2112662;28;20168;-49
2022/11/20 13:59:28;;;;;;;34.75;20.67;;;;;;;;;;2112823;28;20400;-42
2022/11/20 14:00:30;;;;;;;36.40;20.45;;;;;;;;;;2112693;28;20047;-42
2022/11/20 14:01:31;;;;;;;37.88;24.05;;;;;;;;;;2112510;28;20293;-42
2022/11/20 14:02:32;;;;;;;39.30;21.60;;;;;;;;;;2112670;28;20177;-42
2022/11/20 14:03:34;;;;;;;36.00;22.23;;;;;;;;;;2112612;28;20043;-42
2022/11/20 14:04:57;;;;;;;34.05;18.45;;;;;;;;;;2112480;28;20044;-42
2022/11/20 14:06:02;;;;;;;38.95;23.15;;;;;;;;;;2112538;28;20044;-42
2022/11/20 14:07:05;;;;;;;38.60;22.63;;;;;;;;;;2119584;28;20275;-47
2022/11/20 14:08:10;;;;;;;38.25;21.67;;;;;;;;;;2121055;28;20082;-48
2022/11/20 14:09:12;;;;;;;31.88;18.02;;;;;;;;;;2121205;28;20039;-49
2022/11/20 14:10:19;;;;;;;39.90;24.92;;;;;;;;;;2120925;28;20051;-46
2022/11/20 14:11:21;;;;;;;34.92;18.77;;;;;;;;;;2121112;28;20047;-48
2022/11/20 14:12:22;;;;;;;;;;;;;;;;;;2121617;28;20050;-48
2022/11/20 14:13:24;;;;;;;33.20;16.45;;;;;;;;;;2121053;28;19926;-42
2022/11/20 14:14:25;;;;;;;38.60;25.25;;;;;;;;;;2121008;28;20432;-41
2022/11/20 14:15:29;;;;;;;36.38;21.60;;;;;;;;;;2121043;28;20130;-41
2022/11/20 14:16:31;;;;;;;40.28;22.73;;;;;;;;;;2120961;28;20054;-42
2022/11/20 14:17:32;;;;;;;;;;;;;;;;;;2121183;28;20059;-41
2022/11/20 14:18:32;;;;;;;39.80;20.33;;;;;;;;;;2120600;28;20438;-46
2022/11/20 14:19:34;;;;;;;35.78;19.35;;;;;;;;;;2123642;27;20046;-46
2022/11/20 14:20:36;;;;;;;42.17;25.08;;;;;;;;;;2129028;27;20042;-46
2022/11/20 14:21:38;;;;;;;38.00;20.90;;;;;;;;;;2129045;27;20051;-46
2022/11/20 14:22:38;;;;;;;39.72;25.52;;;;;;;;;;2128826;27;20642;-46
2022/11/20 14:23:40;;;;;;;41.70;23.33;;;;;;;;;;2128937;27;20120;-46
2022/11/20 14:24:40;;;;;;;37.92;23.58;;;;;;;;;;2129415;27;20042;-42
2022/11/20 14:25:42;;;;;;;37.47;20.35;;;;;;;;;;2129518;27;20566;-47
2022/11/20 14:26:44;;;;;;;42.63;25.30;;;;;;;;;;2129584;27;20088;-47
2022/11/20 14:27:48;;;;;;;37.75;20.17;;;;;;;;;;2129643;27;20047;-41
2022/11/20 14:28:50;;;;;;;44.75;26.35;;;;;;;;;;2129574;27;20099;-41
2022/11/20 14:29:52;;;;;;;43.45;22.92;;;;;;;;;;2129728;27;20055;-41
2022/11/20 14:30:53;;;;;;;44.20;26.30;;;;;;;;;;2129543;27;20043;-42
2022/11/20 14:31:55;;;;;;;36.10;19.60;;;;;;;;;;2129314;27;20109;-47
2022/11/20 14:33:00;;;;;;;40.58;20.13;;;;;;;;;;2129545;27;20112;-46
2022/11/20 14:34:02;;;;;;;40.83;26.17;;;;;;;;;;2129490;27;20043;-41
2022/11/20 14:35:08;;;;;;;37.05;22.10;;;;;;;;;;2129263;27;20047;-41
2022/11/20 14:36:17;;;;;;;39.00;19.92;;;;;;;;;;2129551;27;20047;-46
2022/11/20 14:37:19;;;;;;;40.95;25.85;;;;;;;;;;2129333;27;20050;-41
2022/11/20 14:38:24;;;;;;;36.38;20.83;;;;;;;;;;2129493;27;20050;-45
2022/11/20 14:39:29;;;;;;;44.08;26.40;;;;;;;;;;2129664;27;20066;-46
2022/11/20 14:40:31;;;;;;;35.33;19.60;;;;;;;;;;2127966;27;20111;-47
2022/11/20 14:41:32;;;;;;;;;;;;;;;;;;2121313;28;20419;-46
2022/11/20 14:42:33;;;;;;;35.50;15.93;;;;;;;;;;2116120;28;19930;-41
2022/11/20 14:43:37;;;;;;;40.30;24.27;;;;;;;;;;2115242;28;20044;-45
2022/11/20 14:44:39;;;;;;;34.92;20.45;;;;;;;;;;2115147;28;20280;-41
2022/11/20 14:45:40;;;;;;;38.42;21.30;;;;;;;;;;2115300;28;20050;-46
2022/11/20 14:46:42;;;;;;;40.97;25.38;;;;;;;;;;2115028;28;20059;-46
2022/11/20 14:47:43;;;;;;;38.28;20.95;;;;;;;;;;2115225;28;20055;-41
2022/11/20 14:48:46;;;;;;;44.35;25.83;;;;;;;;;;2115374;28;20040;-45
2022/11/20 14:49:47;;;;;;;38.15;21.45;;;;;;;;;;2115114;28;20507;-41
2022/11/20 14:50:49;;;;;;;40.80;25.42;;;;;;;;;;2114609;28;20047;-45
2022/11/20 14:51:58;;;;;;;40.00;21.27;;;;;;;;;;2115202;28;20400;-46
2022/11/20 14:53:00;;;;;;;39.53;22.27;;;;;;;;;;2115280;28;20062;-46
2022/11/20 18:21:11;;;;;;;46.67;23.80;;;;;;;;;;4259322;27;20324;-48
2022/11/20 18:22:12;;;;;;;44.50;24.92;;;;;;;;;;2121161;27;20043;-48
2022/11/20 18:23:13;;;;;;;46.28;24.67;;;;;;;;;;2121246;27;20043;-47
2022/11/20 18:24:15;;;;;;;45.83;23.20;;;;;;;;;;2118870;27;20048;-46
2022/11/20 18:25:16;;;;;;;40.28;19.70;;;;;;;;;;2112785;28;20048;-46
2022/11/20 18:26:17;;;;;;;43.47;23.90;;;;;;;;;;2112758;28;20044;-47
2022/11/20 18:27:19;;;;;;;36.70;18.83;;;;;;;;;;2112857;28;20040;-46
2022/11/20 18:28:21;;;;;;;;;;;;;;;;;;2112839;28;20051;-46
2022/11/20 18:29:22;;;;;;;31.73;16.08;;;;;;;;;;2112412;28;19920;-47
2022/11/20 18:30:24;;;;;;;44.85;23.50;;;;;;;;;;2112554;28;20047;-47
2022/11/20 18:31:26;;;;;;;42.60;22.77;;;;;;;;;;2112556;28;20093;-46
2022/11/20 18:32:27;;;;;;;33.35;17.50;;;;;;;;;;2113113;28;20132;-41
2022/11/20 18:33:29;;;;;;;40.20;20.92;;;;;;;;;;2112546;28;20097;-41
2022/11/20 18:34:30;;;;;;;41.30;22.95;;;;;;;;;;2112536;28;20048;-41
2022/11/20 18:35:31;;;;;;;33.40;19.58;;;;;;;;;;2112502;28;20506;-40
2022/11/20 18:36:33;;;;;;;37.08;20.15;;;;;;;;;;2112744;28;20069;-44
2022/11/20 18:37:34;;;;;;;39.53;21.65;;;;;;;;;;2112465;28;20450;-46
2022/11/20 18:38:39;;;;;;;36.15;21.08;;;;;;;;;;2112560;28;20381;-47
2022/11/20 18:39:40;;;;;;;34.33;20.67;;;;;;;;;;2112296;28;20480;-46
2022/11/20 18:40:42;;;;;;;41.97;24.38;;;;;;;;;;2112693;28;20040;-46
2022/11/20 18:44:52;;;;;;;35.00;18.75;;;;;;;;;;2094700;28;20095;-48
2022/11/20 18:46:01;;;;;;;36.08;19.27;;;;;;;;;;2094631;28;20052;-46
2022/11/20 18:47:02;;;;;;;37.78;20.75;;;;;;;;;;2094694;28;20543;-47
2022/11/20 18:48:14;;;;;;;34.22;18.02;;;;;;;;;;2094757;28;20090;-47
2022/11/20 18:49:16;;;;;;;30.58;18.33;;;;;;;;;;2094426;28;20049;-48
2022/11/20 18:50:18;;;;;;;34.03;18.67;;;;;;;;;;2102327;28;20067;-49
2022/11/20 18:51:19;;;;;;;32.53;19.88;;;;;;;;;;2112532;28;20044;-46
2022/11/20 18:52:22;;;;;;;29.87;17.30;;;;;;;;;;2112602;28;20052;-47
2022/11/20 18:53:23;;;;;;;32.20;16.55;;;;;;;;;;2112718;28;20285;-48
2022/11/20 18:54:24;;;;;;;33.65;20.85;;;;;;;;;;2112527;28;20044;-42
2022/11/20 18:56:46;;;;;;;31.38;18.45;;;;;;;;;;2112656;28;20048;-46
2022/11/20 18:57:47;;;;;;;33.67;17.05;;;;;;;;;;2112718;28;20062;-46
2022/11/20 18:58:48;;;;;;;32.65;17.08;;;;;;;;;;2112784;28;20040;-46
2022/11/20 18:59:49;;;;;;;28.08;15.25;;;;;;;;;;2112607;28;20399;-44
2022/11/20 19:00:51;;;;;;;34.83;21.73;;;;;;;;;;2112399;28;20046;-41
2022/11/20 19:01:52;;;;;;;29.38;16.42;;;;;;;;;;2112719;28;20051;-40
2022/11/20 19:02:53;;;;;;;35.67;21.42;;;;;;;;;;2112398;28;20539;-42
2022/11/20 19:03:54;;;;;;;33.92;20.67;;;;;;;;;;2112515;28;20224;-42
2022/11/20 19:04:56;;;;;;;32.17;14.87;;;;;;;;;;2112396;28;20126;-41
2022/11/20 19:05:57;;;;;;;34.08;22.15;;;;;;;;;;2112533;28;20288;-42
2022/11/20 19:06:58;;;;;;;36.72;20.08;;;;;;;;;;2112361;28;20601;-41
2022/11/20 19:08:00;;;;;;;31.35;18.65;;;;;;;;;;2112625;28;20043;-47
2022/11/20 19:09:03;;;;;;;33.13;19.25;;;;;;;;;;2112126;28;20403;-51
2022/11/20 19:10:05;;;;;;;35.42;19.70;;;;;;;;;;2112259;28;20050;-49
2022/11/20 19:11:06;;;;;;;;;;;;;;;;;;2112978;28;20052;-47
2022/11/20 19:12:07;;;;;;;29.60;13.88;;;;;;;;;;2112274;28;20292;-46
2022/11/20 19:13:09;;;;;;;35.92;20.98;;;;;;;;;;2112361;28;20051;-46
2022/11/20 19:14:10;;;;;;;35.55;20.13;;;;;;;;;;2112220;28;20055;-45
2022/11/20 19:15:11;;;;;;;34.10;18.65;;;;;;;;;;2112341;28;20484;-45
2022/11/20 19:16:13;;;;;;;32.28;18.63;;;;;;;;;;2112186;28;20556;-46
2022/11/20 19:17:15;;;;;;;;;;;;;;;;;;2112784;28;20052;-46
2022/11/20 19:18:17;;;;;;;29.40;15.05;;;;;;;;;;2112590;28;19920;-42
2022/11/20 19:19:18;;;;;;;34.95;20.98;;;;;;;;;;2111967;28;20040;-41
2022/11/20 19:20:19;;;;;;;29.98;16.40;;;;;;;;;;2112270;28;20104;-46
2022/11/20 19:21:21;;;;;;;34.05;19.50;;;;;;;;;;2106148;28;20098;-47
2022/11/20 19:22:22;;;;;;;32.83;19.52;;;;;;;;;;2106749;28;20052;-46
2022/11/20 19:23:24;;;;;;;36.20;21.15;;;;;;;;;;2106590;28;20079;-46
2022/11/20 19:24:27;;;;;;;33.38;18.77;;;;;;;;;;2106888;28;20058;-41
2022/11/20 19:25:29;;;;;;;33.85;21.00;;;;;;;;;;2106512;28;20040;-41
2022/11/20 19:26:37;;;;;;;31.20;17.90;;;;;;;;;;2106796;28;20044;-41
2022/11/20 19:27:38;;;;;;;32.00;20.00;;;;;;;;;;2106661;28;20133;-41
2022/11/20 19:28:39;;;;;;;32.65;20.15;;;;;;;;;;2106681;28;20048;-41
2022/11/20 19:29:41;;;;;;;32.50;17.88;;;;;;;;;;2106440;28;20087;-42
2022/11/20 19:30:41;;;;;;;35.40;21.63;;;;;;;;;;2106628;28;20396;-41
2022/11/20 19:31:43;;;;;;;29.77;17.75;;;;;;;;;;2106617;28;20044;-41
2022/11/20 19:32:44;;;;;;;35.13;21.80;;;;;;;;;;2106764;28;20044;-41
2022/11/20 19:33:45;;;;;;;32.37;18.47;;;;;;;;;;2106589;28;20481;-41
2022/11/20 19:34:46;;;;;;;32.33;18.65;;;;;;;;;;2106525;28;20058;-42
2022/11/20 19:35:48;;;;;;;37.30;22.20;;;;;;;;;;2106632;28;20055;-41
2022/11/20 19:36:49;;;;;;;;;;;;;;;;;;2107074;28;20051;-42
2022/11/20 19:37:50;;;;;;;27.42;13.95;;;;;;;;;;2106525;28;19920;-41
2022/11/20 19:38:52;;;;;;;33.08;19.77;;;;;;;;;;2106737;28;20059;-46
2022/11/20 19:39:57;;;;;;;;;;;;;;;;;;2107093;28;20275;-45
2022/11/20 19:40:58;;;;;;;33.60;16.00;;;;;;;;;;2106677;28;19920;-47
2022/11/20 19:41:59;;;;;;;35.03;21.60;;;;;;;;;;2106672;28;20075;-46
2022/11/20 19:43:00;;;;;;;34.80;20.13;;;;;;;;;;2106615;28;20048;-47
2022/11/20 19:44:02;;;;;;;34.63;21.75;;;;;;;;;;2106448;28;20591;-46
2022/11/20 19:45:03;;;;;;;;;;;;;;;;;;2107172;28;20077;-46
2022/11/20 19:46:04;;;;;;;28.67;14.88;;;;;;;;;;2106643;28;20316;-47
2022/11/20 19:47:06;;;;;;;33.20;18.60;;;;;;;;;;2106776;28;20048;-46
2022/11/20 19:48:14;;;;;;;29.75;15.52;;;;;;;;;;2106701;28;20043;-46
2022/11/20 19:49:15;;;;;;;35.73;22.27;;;;;;;;;;2106556;28;20047;-46
2022/11/20 19:50:16;;;;;;;30.13;15.85;;;;;;;;;;2106607;28;20242;-46
2022/11/20 19:51:18;;;;;;;36.70;22.08;;;;;;;;;;2106920;28;20547;-43
2022/11/20 19:52:19;;;;;;;;;;;;;;;;;;2106859;28;20055;-41
2022/11/20 19:53:20;;;;;;;31.80;16.23;;;;;;;;;;2106431;28;19923;-41
2022/11/20 19:54:22;;;;;;;33.20;19.55;;;;;;;;;;2106389;28;20051;-43
2022/11/20 19:55:23;;;;;;;34.03;19.45;;;;;;;;;;2106407;28;20121;-41
2022/11/20 19:56:24;;;;;;;35.92;22.00;;;;;;;;;;2106481;28;20105;-41
2022/11/20 19:57:25;;;;;;;33.10;19.17;;;;;;;;;;2106536;28;20048;-41
2022/11/20 19:58:27;;;;;;;33.42;20.05;;;;;;;;;;2106458;28;20052;-41
2022/11/20 19:59:28;;;;;;;32.45;19.92;;;;;;;;;;2106528;28;20044;-41
2022/11/20 20:00:30;;;;;;;37.80;20.33;;;;;;;;;;2106777;28;20071;-41
2022/11/20 20:01:34;;;;;;;32.97;18.35;;;;;;;;;;2106354;28;20044;-41
2022/11/20 20:02:35;;;;;;;37.33;22.35;;;;;;;;;;2106458;28;20552;-41
2022/11/20 20:03:37;;;;;;;36.23;21.40;;;;;;;;;;2106448;28;20044;-41
2022/11/20 20:04:38;;;;;;;33.92;19.52;;;;;;;;;;2106322;28;20498;-41
2022/11/20 20:05:39;;;;;;;34.13;20.50;;;;;;;;;;2106460;28;20051;-41
2022/11/20 20:06:40;;;;;;;37.58;22.75;;;;;;;;;;2106582;28;20476;-42
2022/11/20 20:07:41;;;;;;;38.25;20.88;;;;;;;;;;2106339;28;20075;-42
2022/11/20 20:08:43;;;;;;;34.07;17.50;;;;;;;;;;2106406;28;20048;-42
2022/11/20 20:09:44;;;;;;;41.03;23.95;;;;;;;;;;2106328;28;20055;-42
2022/11/20 20:10:45;;;;;;;35.13;20.00;;;;;;;;;;2106468;28;20053;-42
2022/11/20 20:11:46;;;;;;;35.40;21.93;;;;;;;;;;2106409;28;20135;-42
2022/11/20 20:12:47;;;;;;;35.20;20.95;;;;;;;;;;2106554;28;20048;-47
2022/11/20 20:13:49;;;;;;;38.45;22.67;;;;;;;;;;2106266;28;20127;-46
2022/11/20 20:14:49;;;;;;;33.33;19.23;;;;;;;;;;2106298;28;20051;-46
2022/11/20 20:15:51;;;;;;;36.35;22.90;;;;;;;;;;2106212;28;20480;-47
2022/11/20 20:16:51;;;;;;;34.78;17.25;;;;;;;;;;2106190;28;20055;-47
2022/11/20 20:17:53;;;;;;;37.30;23.63;;;;;;;;;;2106336;28;20083;-47
2022/11/20 20:18:55;;;;;;;32.30;20.35;;;;;;;;;;2105022;28;20412;-47
2022/11/20 20:19:56;;;;;;;36.75;22.13;;;;;;;;;;2097862;28;20040;-46
2022/11/20 20:21:00;;;;;;;38.08;22.15;;;;;;;;;;2098059;28;20055;-47
2022/11/20 20:22:04;;;;;;;34.85;19.58;;;;;;;;;;2098106;28;20127;-49
2022/11/20 20:23:06;;;;;;;41.50;25.55;;;;;;;;;;2097805;28;20401;-47
2022/11/20 20:24:08;;;;;;;36.17;21.63;;;;;;;;;;2097959;28;20041;-47
2022/11/20 20:25:10;;;;;;;39.47;23.42;;;;;;;;;;2097983;28;20048;-46
2022/11/20 20:26:11;;;;;;;40.53;24.65;;;;;;;;;;2097805;28;20056;-48
2022/11/20 20:27:12;;;;;;;41.53;23.83;;;;;;;;;;2098125;28;20539;-46
2022/11/20 20:28:13;;;;;;;45.08;26.20;;;;;;;;;;2097838;28;20048;-47
2022/11/20 20:29:14;;;;;;;35.78;18.23;;;;;;;;;;2097799;28;20110;-47
2022/11/20 20:30:15;;;;;;;44.47;26.33;;;;;;;;;;2097945;28;20134;-46
2022/11/20 20:31:18;;;;;;;35.63;19.15;;;;;;;;;;2098128;28;20240;-47
2022/11/20 20:32:19;;;;;;;39.75;24.88;;;;;;;;;;2097273;28;20048;-48
2022/11/20 20:33:21;;;;;;;40.85;23.42;;;;;;;;;;2097729;28;20098;-45
2022/11/20 20:34:22;;;;;;;43.65;24.55;;;;;;;;;;2098076;28;20051;-45
2022/11/20 20:35:23;;;;;;;44.88;25.67;;;;;;;;;;2097824;28;20485;-49
2022/11/20 20:36:25;;;;;;;35.28;18.80;;;;;;;;;;2097953;28;20055;-45
2022/11/20 20:37:26;;;;;;;45.80;25.45;;;;;;;;;;2097781;28;20349;-46
2022/11/20 20:38:27;;;;;;;42.35;20.77;;;;;;;;;;2097909;28;20051;-47
2022/11/20 20:39:28;;;;;;;37.03;18.90;;;;;;;;;;2097734;28;20102;-45
2022/11/20 20:40:30;;;;;;;41.53;26.73;;;;;;;;;;2097858;28;20052;-45
2022/11/20 20:41:31;;;;;;;40.28;23.13;;;;;;;;;;2097782;28;20102;-46
2022/11/20 20:42:32;;;;;;;42.50;25.05;;;;;;;;;;2098088;28;20057;-41
2022/11/20 20:45:05;;;;;;;41.85;22.50;;;;;;;;;;2097825;28;20092;-40
2022/11/20 20:46:13;;;;;;;41.47;21.80;;;;;;;;;;2097969;28;20256;-47
2022/11/20 20:47:14;;;;;;;41.33;19.73;;;;;;;;;;2097968;28;20051;-45
2022/11/20 20:48:16;;;;;;;46.27;26.60;;;;;;;;;;2098244;28;20094;-45
2022/11/20 20:49:17;;;;;;;;;;;;;;;;;;2098088;28;20109;-45
2022/11/20 20:50:18;;;;;;;35.95;20.45;;;;;;;;;;2097609;28;20007;-48
2022/11/20 20:51:19;;;;;;;41.47;22.60;;;;;;;;;;2097709;28;20489;-45
2022/11/20 20:52:20;;;;;;;42.37;23.73;;;;;;;;;;2097791;28;20045;-46
2022/11/20 20:53:21;;;;;;;41.85;24.50;;;;;;;;;;2097596;28;20066;-47
2022/11/20 20:54:22;;;;;;;42.15;21.25;;;;;;;;;;2097685;28;20417;-47
2022/11/20 20:55:24;;;;;;;46.78;24.80;;;;;;;;;;2097702;28;20053;-46
2022/11/20 20:56:26;;;;;;;45.40;26.65;;;;;;;;;;2097644;28;20413;-48
2022/11/20 20:57:27;;;;;;;37.17;19.60;;;;;;;;;;2097703;28;20052;-45
2022/11/20 20:58:29;;;;;;;44.47;26.90;;;;;;;;;;2097819;28;20329;-46
2022/11/20 20:59:30;;;;;;;40.67;17.60;;;;;;;;;;2097687;28;20055;-40
2022/11/20 21:00:31;;;;;;;51.40;27.17;;;;;;;;;;2097746;28;20110;-41
2022/11/20 21:01:32;;;;;;;48.37;26.93;;;;;;;;;;2097646;28;20118;-41
2022/11/20 21:02:33;;;;;;;40.70;22.25;;;;;;;;;;2097597;28;20071;-41
2022/11/20 21:03:34;;;;;;;48.20;26.05;;;;;;;;;;2097791;28;20052;-41
2022/11/20 21:04:36;;;;;;;46.78;25.40;;;;;;;;;;2097496;28;20052;-41
2022/11/20 21:05:36;;;;;;;42.28;19.95;;;;;;;;;;2097802;28;20049;-42
2022/11/20 21:06:38;;;;;;;53.55;29.13;;;;;;;;;;2097777;28;20397;-45
2022/11/20 21:08:20;;;;;;;48.60;24.52;;;;;;;;;;2097761;28;20048;-46
2022/11/20 21:09:00;;;;;;;41.75;19.63;;;;;;;;;;2097552;28;20405;-46
2022/11/20 21:10:01;;;;;;;44.15;25.55;;;;;;;;;;2098073;28;20041;-41
2022/11/20 21:11:03;;;;;;;42.22;23.98;;;;;;;;;;2097792;28;20044;-41
2022/11/20 21:12:05;;;;;;;44.38;24.40;;;;;;;;;;2104101;28;20056;-41
2022/11/20 21:13:06;;;;;;;49.92;26.10;;;;;;;;;;2105954;28;20044;-41
2022/11/20 21:14:07;;;;;;;35.08;19.50;;;;;;;;;;2105782;28;20485;-41
2022/11/20 21:15:09;;;;;;;47.03;25.90;;;;;;;;;;2105931;28;20124;-42
2022/11/20 21:16:10;;;;;;;42.03;22.63;;;;;;;;;;2106048;28;20052;-42
2022/11/20 21:17:13;;;;;;;40.10;18.70;;;;;;;;;;2105991;28;20196;-41
2022/11/20 21:18:16;;;;;;;48.45;25.88;;;;;;;;;;2105842;28;20044;-41
2022/11/20 21:19:18;;;;;;;46.50;25.77;;;;;;;;;;2101324;28;20131;-41
2022/11/20 21:23:07;;;;;;;41.60;20.35;;;;;;;;;;2086803;28;20049;-41
2022/11/20 21:24:08;;;;;;;49.90;26.05;;;;;;;;;;2097278;28;20053;-41
2022/11/20 21:25:09;;;;;;;47.80;24.38;;;;;;;;;;2097527;28;20052;-42
2022/11/20 21:26:10;;;;;;;49.13;28.08;;;;;;;;;;2097520;28;20059;-43
2022/11/20 21:27:12;;;;;;;39.45;19.95;;;;;;;;;;2097307;28;20044;-41
2022/11/20 21:28:13;;;;;;;45.78;25.70;;;;;;;;;;2097517;28;20093;-41
2022/11/20 21:29:19;;;;;;;43.65;21.98;;;;;;;;;;2097320;28;20095;-41
2022/11/20 21:30:19;;;;;;;46.40;27.00;;;;;;;;;;2097443;28;20053;-41
2022/11/20 21:31:22;;;;;;;46.93;23.57;;;;;;;;;;2097509;28;20052;-41
2022/11/20 21:32:23;;;;;;;47.55;24.73;;;;;;;;;;2097479;28;20489;-41
2022/11/20 21:33:24;;;;;;;50.33;25.77;;;;;;;;;;2097558;28;20055;-41
2022/11/20 21:34:25;;;;;;;51.70;28.33;;;;;;;;;;2097419;28;20052;-40
2022/11/20 21:35:26;;;;;;;51.83;27.85;;;;;;;;;;2097426;28;20083;-40
2022/11/20 21:36:28;;;;;;;51.95;27.10;;;;;;;;;;2097452;28;20044;-41
2022/11/20 21:37:29;;;;;;;49.72;25.67;;;;;;;;;;2097405;28;20052;-40
2022/11/20 21:38:30;;;;;;;50.67;26.07;;;;;;;;;;2097766;28;20048;-40
2022/11/20 21:39:32;;;;;;;47.83;24.30;;;;;;;;;;2097365;28;20071;-41
2022/11/20 21:40:33;;;;;;;50.95;28.85;;;;;;;;;;2097356;28;20052;-41
2022/11/20 21:41:34;;;;;;;51.53;24.88;;;;;;;;;;2097764;28;20465;-45
2022/11/20 21:42:35;;;;;;;52.03;27.77;;;;;;;;;;2097538;28;20044;-41
2022/11/20 21:43:37;;;;;;;46.58;27.35;;;;;;;;;;2097094;28;20411;-41
2022/11/20 21:44:37;;;;;;;44.50;23.48;;;;;;;;;;2097265;28;20045;-41
2022/11/20 21:45:39;;;;;;;46.47;26.25;;;;;;;;;;2097469;28;20121;-41
2022/11/20 21:46:40;;;;;;;47.95;22.55;;;;;;;;;;2097435;28;20053;-41
2022/11/20 21:47:41;;;;;;;49.47;27.10;;;;;;;;;;2097327;28;20485;-42
2022/11/20 21:48:44;;;;;;;50.72;25.90;;;;;;;;;;2097401;28;20045;-41
2022/11/20 21:49:45;;;;;;;37.95;17.75;;;;;;;;;;2097316;28;20098;-42
2022/11/20 21:50:46;;;;;;;53.73;27.93;;;;;;;;;;2097444;28;20193;-42
2022/11/20 21:51:47;;;;;;;51.33;25.77;;;;;;;;;;2097425;28;20117;-42
2022/11/20 21:52:48;;;;;;;54.13;29.03;;;;;;;;;;2097403;28;20540;-42
2022/11/20 21:53:49;;;;;;;54.58;27.92;;;;;;;;;;2097556;28;20044;-42
2022/11/20 21:54:51;;;;;;;49.65;26.13;;;;;;;;;;2097166;28;20051;-42
2022/11/20 21:55:52;;;;;;;56.22;30.42;;;;;;;;;;2097541;28;20060;-47
2022/11/20 21:56:53;;;;;;;45.00;19.65;;;;;;;;;;2097345;28;20142;-45
2022/11/20 21:57:54;;;;;;;53.35;28.40;;;;;;;;;;2097304;28;20048;-47
2022/11/20 21:58:56;;;;;;;57.78;30.67;;;;;;;;;;2097392;28;20048;-46
2022/11/20 21:59:57;;;;;;;50.47;21.65;;;;;;;;;;2097323;28;20041;-46
2022/11/20 22:00:58;;;;;;;52.57;28.63;;;;;;;;;;2097198;28;20481;-46
2022/11/20 22:01:59;;;;;;;54.15;28.35;;;;;;;;;;2097250;28;20397;-45
2022/11/20 22:03:00;;;;;;;56.20;26.13;;;;;;;;;;2097222;28;20048;-46
2022/11/20 22:04:01;;;;;;;52.85;28.08;;;;;;;;;;2097256;28;20040;-46
2022/11/20 22:05:02;;;;;;;56.90;28.95;;;;;;;;;;2097261;28;20044;-46
2022/11/20 22:06:04;;;;;;;41.92;19.80;;;;;;;;;;2097392;28;20405;-47
2022/11/20 22:07:05;;;;;;;57.05;29.35;;;;;;;;;;2097674;28;20049;-46
2022/11/20 22:08:06;;;;;;;53.28;28.38;;;;;;;;;;2101963;28;20051;-46
2022/11/20 22:09:09;;;;;;;56.85;25.85;;;;;;;;;;2105833;28;20044;-42
2022/11/20 22:10:10;;;;;;;62.95;31.15;;;;;;;;;;2105640;28;20060;-41
2022/11/20 22:11:19;;;;;;;57.47;24.33;;;;;;;;;;2105641;28;20097;-41
2022/11/20 22:12:21;;;;;;;55.53;28.27;;;;;;;;;;2105782;28;20473;-41
2022/11/20 22:14:44;;;;;;;47.92;22.13;;;;;;;;;;2105711;28;20145;-45
2022/11/20 22:15:45;;;;;;;53.70;25.08;;;;;;;;;;2105678;28;20040;-45
2022/11/20 22:17:01;;;;;;;58.25;26.80;;;;;;;;;;2105566;28;20435;-45
2022/11/20 22:18:11;;;;;;;59.00;28.90;;;;;;;;;;2105667;28;20101;-45
2022/11/20 22:19:14;;;;;;;48.60;23.23;;;;;;;;;;2101635;28;20401;-46
2022/11/20 22:20:15;;;;;;;49.88;19.98;;;;;;;;;;2097030;28;20546;-46
2022/11/20 22:21:17;;;;;;;60.20;30.97;;;;;;;;;;2097652;28;20094;-47
2022/11/20 22:22:18;;;;;;;;;;;;;;;;;;2097760;28;20060;-47
2022/11/20 22:23:19;;;;;;;50.53;24.10;;;;;;;;;;2097174;28;20342;-46
2022/11/20 22:24:21;;;;;;;59.13;25.30;;;;;;;;;;2097130;28;20056;-46
2022/11/20 22:25:22;;;;;;;62.17;30.35;;;;;;;;;;2097498;28;20136;-43
2022/11/20 22:26:24;;;;;;;60.07;31.23;;;;;;;;;;2097431;28;20417;-41
2022/11/20 22:27:25;;;;;;;;;;;;;;;;;;2097659;28;20291;-41
2022/11/20 22:28:27;;;;;;;57.75;27.40;;;;;;;;;;2097171;28;19959;-41
2022/11/20 22:29:28;;;;;;;66.50;27.75;;;;;;;;;;2097262;28;20041;-45
2022/11/20 22:30:29;;;;;;;65.03;31.70;;;;;;;;;;2097186;28;20139;-47
2022/11/20 22:31:30;;;;;;;53.05;22.90;;;;;;;;;;2097072;28;20417;-46
2022/11/20 22:32:31;;;;;;;68.65;31.63;;;;;;;;;;2097184;28;20045;-46
2022/11/20 22:33:33;;;;;;;65.03;32.00;;;;;;;;;;2097302;28;20048;-45
2022/11/20 22:34:34;;;;;;;55.58;26.25;;;;;;;;;;2097014;28;20049;-46
2022/11/20 22:35:35;;;;;;;62.03;30.83;;;;;;;;;;2097416;28;20053;-41
2022/11/20 22:36:36;;;;;;;64.07;31.23;;;;;;;;;;2097225;28;20493;-41
2022/11/20 22:37:37;;;;;;;67.75;31.90;;;;;;;;;;2097275;28;20049;-40
2022/11/20 22:38:38;;;;;;;61.35;25.73;;;;;;;;;;2097164;28;20106;-41
2022/11/20 22:39:40;;;;;;;;;;;;;;;;;;2097895;28;20489;-42
2022/11/20 22:40:42;;;;;;;57.10;24.75;;;;;;;;;;2097004;28;19974;-41
2022/11/20 22:41:43;;;;;;;55.50;27.13;;;;;;;;;;2097046;28;20051;-41
2022/11/20 22:42:45;;;;;;;68.70;33.67;;;;;;;;;;2097088;28;20139;-41
2022/11/20 22:43:46;;;;;;;68.78;33.75;;;;;;;;;;2097125;28;20052;-42
2022/11/20 22:44:47;;;;;;;57.90;27.15;;;;;;;;;;2097180;28;20040;-41
2022/11/20 22:45:48;;;;;;;54.42;23.17;;;;;;;;;;2097023;28;20056;-41
2022/11/20 22:46:49;;;;;;;61.87;30.47;;;;;;;;;;2097158;28;20048;-41
2022/11/20 22:47:50;;;;;;;48.60;22.00;;;;;;;;;;2097101;28;20045;-41
2022/11/20 22:48:52;;;;;;;60.38;29.73;;;;;;;;;;2097217;28;20041;-41
2022/11/20 22:49:53;;;;;;;59.95;28.85;;;;;;;;;;2096861;28;20052;-42
2022/11/20 22:50:59;;;;;;;54.97;25.83;;;;;;;;;;2097107;28;20547;-41
2022/11/20 22:52:00;;;;;;;60.63;27.48;;;;;;;;;;2097133;28;20047;-41
2022/11/20 22:53:01;;;;;;;60.30;30.33;;;;;;;;;;2097062;28;20045;-41
2022/11/20 22:54:02;;;;;;;60.40;28.45;;;;;;;;;;2097012;28;20397;-42
2022/11/20 22:55:04;;;;;;;61.63;29.13;;;;;;;;;;2097012;28;20489;-42
2022/11/20 22:56:05;;;;;;;50.85;24.17;;;;;;;;;;2097608;28;20082;-41
2022/11/20 22:57:07;;;;;;;62.97;29.33;;;;;;;;;;2098690;28;20051;-41
2022/11/20 22:58:08;;;;;;;72.03;33.58;;;;;;;;;;2098697;28;20056;-41
2022/11/20 22:59:10;;;;;;;55.90;24.63;;;;;;;;;;2098210;28;20082;-42
2022/11/20 23:00:11;;;;;;;63.80;32.38;;;;;;;;;;2098351;28;20485;-41
2022/11/20 23:01:13;;;;;;;58.33;27.30;;;;;;;;;;2098265;28;20401;-41
2022/11/20 23:02:14;;;;;;;66.38;32.03;;;;;;;;;;2098462;28;20052;-41
2022/11/20 23:03:15;;;;;;;58.95;24.83;;;;;;;;;;2098465;28;20049;-41
2022/11/20 23:04:16;;;;;;;46.03;19.52;;;;;;;;;;2102335;28;20036;-41
2022/11/20 23:05:17;;;;;;;64.45;29.45;;;;;;;;;;2106775;28;20106;-41
2022/11/20 23:06:19;;;;;;;55.83;23.75;;;;;;;;;;2106886;28;20442;-41
2022/11/20 23:07:19;;;;;;;62.05;28.88;;;;;;;;;;2106763;28;20526;-41
2022/11/20 23:08:21;;;;;;;50.75;23.20;;;;;;;;;;2106751;28;20133;-41
2022/11/20 23:09:21;;;;;;;58.72;29.17;;;;;;;;;;2106687;28;20052;-42
2022/11/20 23:10:23;;;;;;;53.28;23.80;;;;;;;;;;2106696;28;20495;-41
2022/11/20 23:11:25;;;;;;;56.28;29.02;;;;;;;;;;2106734;28;20536;-41
2022/11/20 23:12:26;;;;;;;;;;;;;;;;;;2107126;28;20578;-41
2022/11/20 23:13:27;;;;;;;48.25;20.77;;;;;;;;;;2106731;28;20011;-42
2022/11/20 23:14:29;;;;;;;57.58;28.33;;;;;;;;;;2106645;28;20101;-41
2022/11/20 23:15:31;;;;;;;55.03;26.05;;;;;;;;;;2106784;28;20055;-41
2022/11/20 23:16:33;;;;;;;58.47;27.15;;;;;;;;;;2106784;28;20055;-41
2022/11/20 23:17:34;;;;;;;59.28;26.70;;;;;;;;;;2106721;28;20040;-41
2022/11/20 23:18:35;;;;;;;56.83;28.85;;;;;;;;;;2106890;28;20477;-46
2022/11/20 23:19:36;;;;;;;65.43;29.60;;;;;;;;;;2099434;28;20044;-46
2022/11/20 23:20:37;;;;;;;46.53;20.10;;;;;;;;;;2098339;28;20088;-46
2022/11/20 23:21:39;;;;;;;61.35;28.15;;;;;;;;;;2098356;28;20119;-46
2022/11/20 23:22:40;;;;;;;51.58;24.30;;;;;;;;;;2098472;28;20044;-46
2022/11/20 23:23:42;;;;;;;53.42;27.25;;;;;;;;;;2098308;28;20076;-46